sensor_id;sensor_type;location;lat;lon;timestamp;temperature;humidity
48579;DHT22;34357;51.948;6.132;2023-03-01T00:01:24;-1.40;76.90
48579;DHT22;34357;51.948;6.132;2023-03-01T00:03:50;-1.30;76.80
48579;DHT22;34357;51.948;6.132;2023-03-01T00:06:16;-1.30;76.70
48579;DHT22;34357;51.948;6.132;2023-03-01T00:08:42;-1.30;76.90
48579;DHT22;34357;51.948;6.132;2023-03-01T00:11:10;-1.30;76.90
48579;DHT22;34357;51.948;6.132;2023-03-01T00:13:37;-1.40;76.80
48579;DHT22;34357;51.948;6.132;2023-03-01T00:16:08;-1.50;77.00
48579;DHT22;34357;51.948;6.132;2023-03-01T00:18:34;-1.50;77.10
48579;DHT22;34357;51.948;6.132;2023-03-01T00:21:00;-1.50;77.40
48579;DHT22;34357;51.948;6.132;2023-03-01T00:23:26;-1.50;77.60
48579;DHT22;34357;51.948;6.132;2023-03-01T00:25:53;-1.50;77.60
48579;DHT22;34357;51.948;6.132;2023-03-01T00:28:19;-1.50;77.70
48579;DHT22;34357;51.948;6.132;2023-03-01T00:30:45;-1.60;77.70
48579;DHT22;34357;51.948;6.132;2023-03-01T00:33:12;-1.70;78.00
48579;DHT22;34357;51.948;6.132;2023-03-01T00:35:38;-1.80;78.20
48579;DHT22;34357;51.948;6.132;2023-03-01T00:38:04;-1.80;78.40
48579;DHT22;34357;51.948;6.132;2023-03-01T00:40:32;-1.70;78.50
48579;DHT22;34357;51.948;6.132;2023-03-01T00:42:58;-1.80;78.60
48579;DHT22;34357;51.948;6.132;2023-03-01T00:45:24;-1.80;78.50
48579;DHT22;34357;51.948;6.132;2023-03-01T00:47:51;-1.90;78.70
48579;DHT22;34357;51.948;6.132;2023-03-01T00:50:17;-1.90;78.80
48579;DHT22;34357;51.948;6.132;2023-03-01T00:52:44;-1.90;78.80
48579;DHT22;34357;51.948;6.132;2023-03-01T00:55:10;-1.90;78.80
48579;DHT22;34357;51.948;6.132;2023-03-01T00:57:36;-1.90;79.00
48579;DHT22;34357;51.948;6.132;2023-03-01T01:00:03;-1.90;78.90
48579;DHT22;34357;51.948;6.132;2023-03-01T01:02:32;-1.90;78.50
48579;DHT22;34357;51.948;6.132;2023-03-01T01:04:58;-1.90;78.40
48579;DHT22;34357;51.948;6.132;2023-03-01T01:07:23;-1.90;78.20
48579;DHT22;34357;51.948;6.132;2023-03-01T01:09:49;-2.00;78.20
48579;DHT22;34357;51.948;6.132;2023-03-01T01:12:16;-2.00;78.40
48579;DHT22;34357;51.948;6.132;2023-03-01T01:14:41;-2.00;78.50
48579;DHT22;34357;51.948;6.132;2023-03-01T01:17:09;-2.00;78.50
48579;DHT22;34357;51.948;6.132;2023-03-01T01:19:35;-2.00;78.30
48579;DHT22;34357;51.948;6.132;2023-03-01T01:22:01;-2.00;78.60
48579;DHT22;34357;51.948;6.132;2023-03-01T01:24:26;-2.10;78.60
48579;DHT22;34357;51.948;6.132;2023-03-01T01:26:52;-2.10;78.70
48579;DHT22;34357;51.948;6.132;2023-03-01T01:29:18;-2.10;79.10
48579;DHT22;34357;51.948;6.132;2023-03-01T01:31:44;-2.10;79.30
48579;DHT22;34357;51.948;6.132;2023-03-01T01:34:17;-2.20;79.40
48579;DHT22;34357;51.948;6.132;2023-03-01T01:36:43;-2.20;79.40
48579;DHT22;34357;51.948;6.132;2023-03-01T01:39:09;-2.20;79.50
48579;DHT22;34357;51.948;6.132;2023-03-01T01:41:39;-2.20;79.30
48579;DHT22;34357;51.948;6.132;2023-03-01T01:44:24;-2.30;79.30
48579;DHT22;34357;51.948;6.132;2023-03-01T01:47:04;-2.20;79.40
48579;DHT22;34357;51.948;6.132;2023-03-01T01:54:39;-2.20;79.30
48579;DHT22;34357;51.948;6.132;2023-03-01T01:57:11;-2.20;79.40
48579;DHT22;34357;51.948;6.132;2023-03-01T01:59:38;-2.20;79.50
48579;DHT22;34357;51.948;6.132;2023-03-01T02:02:04;-2.20;79.50
48579;DHT22;34357;51.948;6.132;2023-03-01T02:04:31;-2.20;79.60
48579;DHT22;34357;51.948;6.132;2023-03-01T02:07:06;-2.20;79.60
48579;DHT22;34357;51.948;6.132;2023-03-01T02:09:33;-2.10;79.50
48579;DHT22;34357;51.948;6.132;2023-03-01T02:12:01;-2.20;79.50
48579;DHT22;34357;51.948;6.132;2023-03-01T02:14:27;-2.20;79.70
48579;DHT22;34357;51.948;6.132;2023-03-01T02:16:53;-2.20;79.60
48579;DHT22;34357;51.948;6.132;2023-03-01T02:22:14;-2.20;79.70
48579;DHT22;34357;51.948;6.132;2023-03-01T02:27:19;-2.20;79.50
48579;DHT22;34357;51.948;6.132;2023-03-01T02:29:50;-2.20;79.40
48579;DHT22;34357;51.948;6.132;2023-03-01T02:32:16;-2.30;79.50
48579;DHT22;34357;51.948;6.132;2023-03-01T02:34:55;-2.30;79.60
48579;DHT22;34357;51.948;6.132;2023-03-01T02:37:22;-2.40;79.90
48579;DHT22;34357;51.948;6.132;2023-03-01T02:39:57;-2.40;80.10
48579;DHT22;34357;51.948;6.132;2023-03-01T02:42:28;-2.40;80.30
48579;DHT22;34357;51.948;6.132;2023-03-01T02:44:56;-2.40;80.10
48579;DHT22;34357;51.948;6.132;2023-03-01T02:47:21;-2.40;80.10
48579;DHT22;34357;51.948;6.132;2023-03-01T02:49:47;-2.50;80.20
48579;DHT22;34357;51.948;6.132;2023-03-01T02:55:14;-2.50;80.40
48579;DHT22;34357;51.948;6.132;2023-03-01T02:57:44;-2.50;80.40
48579;DHT22;34357;51.948;6.132;2023-03-01T03:00:13;-2.50;80.60
48579;DHT22;34357;51.948;6.132;2023-03-01T03:02:49;-2.50;80.60
48579;DHT22;34357;51.948;6.132;2023-03-01T03:05:23;-2.60;80.70
48579;DHT22;34357;51.948;6.132;2023-03-01T03:07:52;-2.60;80.90
48579;DHT22;34357;51.948;6.132;2023-03-01T03:10:26;-2.70;80.90
48579;DHT22;34357;51.948;6.132;2023-03-01T03:12:57;-2.70;81.10
48579;DHT22;34357;51.948;6.132;2023-03-01T03:15:23;-2.70;81.50
48579;DHT22;34357;51.948;6.132;2023-03-01T03:17:50;-2.70;81.70
48579;DHT22;34357;51.948;6.132;2023-03-01T03:20:18;-2.80;81.80
48579;DHT22;34357;51.948;6.132;2023-03-01T03:22:46;-2.80;81.80
48579;DHT22;34357;51.948;6.132;2023-03-01T03:25:12;-2.80;81.90
48579;DHT22;34357;51.948;6.132;2023-03-01T03:27:39;-2.80;82.00
48579;DHT22;34357;51.948;6.132;2023-03-01T03:30:07;-2.90;82.20
48579;DHT22;34357;51.948;6.132;2023-03-01T03:32:37;-2.80;82.50
48579;DHT22;34357;51.948;6.132;2023-03-01T03:35:08;-2.90;82.40
48579;DHT22;34357;51.948;6.132;2023-03-01T03:37:38;-2.90;82.50
48579;DHT22;34357;51.948;6.132;2023-03-01T03:40:23;-3.00;82.80
48579;DHT22;34357;51.948;6.132;2023-03-01T03:42:49;-2.90;82.80
48579;DHT22;34357;51.948;6.132;2023-03-01T03:45:15;-3.00;83.00
48579;DHT22;34357;51.948;6.132;2023-03-01T03:47:41;-3.00;82.90
48579;DHT22;34357;51.948;6.132;2023-03-01T03:50:09;-3.00;83.00
48579;DHT22;34357;51.948;6.132;2023-03-01T03:52:35;-3.10;83.10
48579;DHT22;34357;51.948;6.132;2023-03-01T03:55:00;-3.10;83.20
48579;DHT22;34357;51.948;6.132;2023-03-01T03:57:26;-3.10;83.30
48579;DHT22;34357;51.948;6.132;2023-03-01T03:59:52;-3.10;83.60
48579;DHT22;34357;51.948;6.132;2023-03-01T04:02:17;-3.10;83.60
48579;DHT22;34357;51.948;6.132;2023-03-01T04:04:50;-3.20;83.40
48579;DHT22;34357;51.948;6.132;2023-03-01T04:07:16;-3.20;83.50
48579;DHT22;34357;51.948;6.132;2023-03-01T04:09:43;-3.20;83.60
48579;DHT22;34357;51.948;6.132;2023-03-01T04:12:09;-3.20;83.60
48579;DHT22;34357;51.948;6.132;2023-03-01T04:14:36;-3.20;83.80
48579;DHT22;34357;51.948;6.132;2023-03-01T04:17:02;-3.10;83.90
48579;DHT22;34357;51.948;6.132;2023-03-01T04:19:33;-3.30;83.70
48579;DHT22;34357;51.948;6.132;2023-03-01T04:22:04;-3.30;83.70
48579;DHT22;34357;51.948;6.132;2023-03-01T04:24:37;-3.30;83.80
48579;DHT22;34357;51.948;6.132;2023-03-01T04:27:03;-3.30;84.00
48579;DHT22;34357;51.948;6.132;2023-03-01T04:29:29;-3.30;84.10
48579;DHT22;34357;51.948;6.132;2023-03-01T04:31:55;-3.30;84.10
48579;DHT22;34357;51.948;6.132;2023-03-01T04:34:20;-3.30;84.10
48579;DHT22;34357;51.948;6.132;2023-03-01T04:36:46;-3.30;84.10
48579;DHT22;34357;51.948;6.132;2023-03-01T04:39:12;-3.30;84.20
48579;DHT22;34357;51.948;6.132;2023-03-01T04:41:38;-3.40;84.10
48579;DHT22;34357;51.948;6.132;2023-03-01T04:44:05;-3.40;84.10
48579;DHT22;34357;51.948;6.132;2023-03-01T04:46:31;-3.30;84.10
48579;DHT22;34357;51.948;6.132;2023-03-01T04:48:57;-3.40;84.10
48579;DHT22;34357;51.948;6.132;2023-03-01T04:51:22;-3.30;84.10
48579;DHT22;34357;51.948;6.132;2023-03-01T04:53:49;-3.30;84.10
48579;DHT22;34357;51.948;6.132;2023-03-01T04:56:15;-3.40;84.00
48579;DHT22;34357;51.948;6.132;2023-03-01T04:58:41;-3.40;84.10
48579;DHT22;34357;51.948;6.132;2023-03-01T05:01:18;-3.40;84.00
48579;DHT22;34357;51.948;6.132;2023-03-01T05:03:46;-3.40;84.00
48579;DHT22;34357;51.948;6.132;2023-03-01T05:06:13;-3.40;84.10
48579;DHT22;34357;51.948;6.132;2023-03-01T05:08:40;-3.50;84.00
48579;DHT22;34357;51.948;6.132;2023-03-01T05:11:07;-3.50;83.90
48579;DHT22;34357;51.948;6.132;2023-03-01T05:13:38;-3.50;83.80
48579;DHT22;34357;51.948;6.132;2023-03-01T05:16:05;-3.50;83.70
48579;DHT22;34357;51.948;6.132;2023-03-01T05:18:32;-3.50;83.80
48579;DHT22;34357;51.948;6.132;2023-03-01T05:21:08;-3.50;83.80
48579;DHT22;34357;51.948;6.132;2023-03-01T05:23:34;-3.50;84.00
48579;DHT22;34357;51.948;6.132;2023-03-01T05:26:01;-3.50;84.10
48579;DHT22;34357;51.948;6.132;2023-03-01T05:28:30;-3.60;84.10
48579;DHT22;34357;51.948;6.132;2023-03-01T05:30:57;-3.60;84.10
48579;DHT22;34357;51.948;6.132;2023-03-01T05:33:23;-3.70;84.30
48579;DHT22;34357;51.948;6.132;2023-03-01T05:35:50;-3.60;84.50
48579;DHT22;34357;51.948;6.132;2023-03-01T05:38:17;-3.60;84.60
48579;DHT22;34357;51.948;6.132;2023-03-01T05:40:45;-3.70;84.50
48579;DHT22;34357;51.948;6.132;2023-03-01T05:43:12;-3.70;84.60
48579;DHT22;34357;51.948;6.132;2023-03-01T05:45:39;-3.70;84.50
48579;DHT22;34357;51.948;6.132;2023-03-01T05:48:06;-3.70;84.40
48579;DHT22;34357;51.948;6.132;2023-03-01T05:50:37;-3.70;84.30
48579;DHT22;34357;51.948;6.132;2023-03-01T05:53:19;-3.70;84.50
48579;DHT22;34357;51.948;6.132;2023-03-01T05:55:47;-3.80;84.40
48579;DHT22;34357;51.948;6.132;2023-03-01T05:58:17;-3.80;84.50
48579;DHT22;34357;51.948;6.132;2023-03-01T06:00:44;-3.80;84.60
48579;DHT22;34357;51.948;6.132;2023-03-01T06:03:12;-3.70;84.80
48579;DHT22;34357;51.948;6.132;2023-03-01T06:05:38;-3.70;84.70
48579;DHT22;34357;51.948;6.132;2023-03-01T06:08:05;-3.80;84.70
48579;DHT22;34357;51.948;6.132;2023-03-01T06:10:31;-3.80;84.80
48579;DHT22;34357;51.948;6.132;2023-03-01T06:12:57;-3.90;84.90
48579;DHT22;34357;51.948;6.132;2023-03-01T06:15:24;-3.90;85.00
48579;DHT22;34357;51.948;6.132;2023-03-01T06:17:51;-3.90;85.00
48579;DHT22;34357;51.948;6.132;2023-03-01T06:20:20;-3.90;85.20
48579;DHT22;34357;51.948;6.132;2023-03-01T06:22:47;-4.00;85.30
48579;DHT22;34357;51.948;6.132;2023-03-01T06:25:16;-3.90;85.40
48579;DHT22;34357;51.948;6.132;2023-03-01T06:27:42;-3.90;85.60
48579;DHT22;34357;51.948;6.132;2023-03-01T06:30:10;-3.90;85.60
48579;DHT22;34357;51.948;6.132;2023-03-01T06:32:37;-3.90;85.50
48579;DHT22;34357;51.948;6.132;2023-03-01T06:35:04;-3.90;85.50
48579;DHT22;34357;51.948;6.132;2023-03-01T06:37:30;-3.90;85.50
48579;DHT22;34357;51.948;6.132;2023-03-01T06:39:56;-3.90;85.60
48579;DHT22;34357;51.948;6.132;2023-03-01T06:42:22;-3.90;85.60
48579;DHT22;34357;51.948;6.132;2023-03-01T06:44:48;-3.90;85.60
48579;DHT22;34357;51.948;6.132;2023-03-01T06:47:14;-3.80;85.60
48579;DHT22;34357;51.948;6.132;2023-03-01T06:49:40;-3.80;85.60
48579;DHT22;34357;51.948;6.132;2023-03-01T06:52:06;-3.80;85.70
48579;DHT22;34357;51.948;6.132;2023-03-01T06:54:31;-3.70;85.70
48579;DHT22;34357;51.948;6.132;2023-03-01T06:56:57;-3.60;85.60
48579;DHT22;34357;51.948;6.132;2023-03-01T06:59:23;-3.60;85.50
48579;DHT22;34357;51.948;6.132;2023-03-01T07:01:48;-3.60;85.40
48579;DHT22;34357;51.948;6.132;2023-03-01T07:04:14;-3.60;85.40
48579;DHT22;34357;51.948;6.132;2023-03-01T07:06:41;-3.50;85.50
48579;DHT22;34357;51.948;6.132;2023-03-01T07:09:07;-3.40;85.40
48579;DHT22;34357;51.948;6.132;2023-03-01T07:11:33;-3.30;85.60
48579;DHT22;34357;51.948;6.132;2023-03-01T07:13:58;-3.00;85.60
48579;DHT22;34357;51.948;6.132;2023-03-01T07:16:25;-2.70;85.20
48579;DHT22;34357;51.948;6.132;2023-03-01T07:18:51;-2.50;84.70
48579;DHT22;34357;51.948;6.132;2023-03-01T07:21:17;-2.30;84.10
48579;DHT22;34357;51.948;6.132;2023-03-01T07:23:42;-2.20;83.50
48579;DHT22;34357;51.948;6.132;2023-03-01T07:26:08;-2.10;83.10
48579;DHT22;34357;51.948;6.132;2023-03-01T07:28:34;-1.80;83.10
48579;DHT22;34357;51.948;6.132;2023-03-01T07:31:05;-1.50;82.70
48579;DHT22;34357;51.948;6.132;2023-03-01T07:33:32;-1.20;81.70
48579;DHT22;34357;51.948;6.132;2023-03-01T07:35:59;-0.90;81.40
48579;DHT22;34357;51.948;6.132;2023-03-01T07:38:26;-0.60;80.40
48579;DHT22;34357;51.948;6.132;2023-03-01T07:40:52;-0.40;79.40
48579;DHT22;34357;51.948;6.132;2023-03-01T07:43:18;-0.10;78.70
48579;DHT22;34357;51.948;6.132;2023-03-01T07:45:43;0.00;76.90
48579;DHT22;34357;51.948;6.132;2023-03-01T07:48:09;0.10;76.50
48579;DHT22;34357;51.948;6.132;2023-03-01T07:50:35;0.20;76.70
48579;DHT22;34357;51.948;6.132;2023-03-01T07:53:01;0.40;75.90
48579;DHT22;34357;51.948;6.132;2023-03-01T07:55:28;0.60;75.50
48579;DHT22;34357;51.948;6.132;2023-03-01T07:57:53;0.60;74.90
48579;DHT22;34357;51.948;6.132;2023-03-01T08:00:19;0.80;74.20
48579;DHT22;34357;51.948;6.132;2023-03-01T08:02:45;0.80;73.40
48579;DHT22;34357;51.948;6.132;2023-03-01T08:05:11;0.80;73.30
48579;DHT22;34357;51.948;6.132;2023-03-01T08:07:37;0.90;73.00
48579;DHT22;34357;51.948;6.132;2023-03-01T08:10:03;0.90;73.20
48579;DHT22;34357;51.948;6.132;2023-03-01T08:12:29;1.10;72.60
48579;DHT22;34357;51.948;6.132;2023-03-01T08:14:55;1.30;72.70
48579;DHT22;34357;51.948;6.132;2023-03-01T08:17:25;1.40;71.50
48579;DHT22;34357;51.948;6.132;2023-03-01T08:19:54;1.60;71.80
48579;DHT22;34357;51.948;6.132;2023-03-01T08:22:20;1.80;70.90
48579;DHT22;34357;51.948;6.132;2023-03-01T08:24:47;1.90;70.30
48579;DHT22;34357;51.948;6.132;2023-03-01T08:27:15;1.90;69.80
48579;DHT22;34357;51.948;6.132;2023-03-01T08:29:41;2.00;70.20
48579;DHT22;34357;51.948;6.132;2023-03-01T08:32:07;2.40;69.60
48579;DHT22;34357;51.948;6.132;2023-03-01T08:34:33;2.60;68.90
48579;DHT22;34357;51.948;6.132;2023-03-01T08:37:01;2.60;69.30
48579;DHT22;34357;51.948;6.132;2023-03-01T08:39:31;2.90;68.30
48579;DHT22;34357;51.948;6.132;2023-03-01T08:41:57;3.10;66.90
48579;DHT22;34357;51.948;6.132;2023-03-01T08:44:23;3.30;66.90
48579;DHT22;34357;51.948;6.132;2023-03-01T08:46:50;3.50;66.40
48579;DHT22;34357;51.948;6.132;2023-03-01T08:49:19;3.30;65.50
48579;DHT22;34357;51.948;6.132;2023-03-01T08:51:46;3.40;65.80
48579;DHT22;34357;51.948;6.132;2023-03-01T08:54:14;3.60;64.50
48579;DHT22;34357;51.948;6.132;2023-03-01T08:56:40;3.80;65.30
48579;DHT22;34357;51.948;6.132;2023-03-01T08:59:07;4.30;64.40
48579;DHT22;34357;51.948;6.132;2023-03-01T09:01:33;4.20;64.20
48579;DHT22;34357;51.948;6.132;2023-03-01T09:03:59;4.20;63.60
48579;DHT22;34357;51.948;6.132;2023-03-01T09:06:30;4.50;63.20
48579;DHT22;34357;51.948;6.132;2023-03-01T09:08:58;4.80;62.30
48579;DHT22;34357;51.948;6.132;2023-03-01T09:11:25;4.90;61.60
48579;DHT22;34357;51.948;6.132;2023-03-01T09:13:51;5.10;60.90
48579;DHT22;34357;51.948;6.132;2023-03-01T09:16:20;4.90;61.00
48579;DHT22;34357;51.948;6.132;2023-03-01T09:18:49;4.80;61.00
48579;DHT22;34357;51.948;6.132;2023-03-01T09:21:17;4.80;60.60
48579;DHT22;34357;51.948;6.132;2023-03-01T09:23:45;4.90;59.90
48579;DHT22;34357;51.948;6.132;2023-03-01T09:26:14;4.70;61.00
48579;DHT22;34357;51.948;6.132;2023-03-01T09:28:42;5.20;59.70
48579;DHT22;34357;51.948;6.132;2023-03-01T09:31:17;5.10;58.70
48579;DHT22;34357;51.948;6.132;2023-03-01T09:33:46;5.10;60.00
48579;DHT22;34357;51.948;6.132;2023-03-01T09:36:18;5.40;59.50
48579;DHT22;34357;51.948;6.132;2023-03-01T09:38:45;5.60;59.30
48579;DHT22;34357;51.948;6.132;2023-03-01T09:45:24;5.60;58.30
48579;DHT22;34357;51.948;6.132;2023-03-01T09:47:46;5.40;58.70
48579;DHT22;34357;51.948;6.132;2023-03-01T09:50:15;5.50;57.40
48579;DHT22;34357;51.948;6.132;2023-03-01T10:07:19;5.50;54.00
48579;DHT22;34357;51.948;6.132;2023-03-01T10:09:47;5.30;53.50
48579;DHT22;34357;51.948;6.132;2023-03-01T10:12:37;5.00;54.50
48579;DHT22;34357;51.948;6.132;2023-03-01T10:17:39;4.90;53.90
48579;DHT22;34357;51.948;6.132;2023-03-01T10:20:24;4.90;52.90
48579;DHT22;34357;51.948;6.132;2023-03-01T10:22:54;4.80;53.60
48579;DHT22;34357;51.948;6.132;2023-03-01T10:25:31;4.80;54.10
48579;DHT22;34357;51.948;6.132;2023-03-01T10:28:09;4.90;54.20
48579;DHT22;34357;51.948;6.132;2023-03-01T10:30:38;4.80;54.00
48579;DHT22;34357;51.948;6.132;2023-03-01T10:33:35;4.80;54.20
48579;DHT22;34357;51.948;6.132;2023-03-01T10:36:02;4.90;52.50
48579;DHT22;34357;51.948;6.132;2023-03-01T10:38:31;4.90;52.50
48579;DHT22;34357;51.948;6.132;2023-03-01T10:41:05;4.80;53.40
48579;DHT22;34357;51.948;6.132;2023-03-01T10:43:47;4.90;53.90
48579;DHT22;34357;51.948;6.132;2023-03-01T10:46:35;4.90;53.40
48579;DHT22;34357;51.948;6.132;2023-03-01T10:49:16;4.80;54.00
48579;DHT22;34357;51.948;6.132;2023-03-01T10:51:45;4.90;55.00
48579;DHT22;34357;51.948;6.132;2023-03-01T10:54:22;5.00;54.60
48579;DHT22;34357;51.948;6.132;2023-03-01T10:57:10;5.00;54.40
48579;DHT22;34357;51.948;6.132;2023-03-01T11:00:02;4.90;54.30
48579;DHT22;34357;51.948;6.132;2023-03-01T11:02:39;4.90;54.80
48579;DHT22;34357;51.948;6.132;2023-03-01T11:07:55;5.00;54.90
48579;DHT22;34357;51.948;6.132;2023-03-01T11:10:34;5.00;55.00
48579;DHT22;34357;51.948;6.132;2023-03-01T11:13:09;5.10;54.20
48579;DHT22;34357;51.948;6.132;2023-03-01T11:15:39;5.10;55.00
48579;DHT22;34357;51.948;6.132;2023-03-01T11:18:22;5.10;53.60
48579;DHT22;34357;51.948;6.132;2023-03-01T11:20:49;5.10;53.90
48579;DHT22;34357;51.948;6.132;2023-03-01T11:23:17;5.10;53.70
48579;DHT22;34357;51.948;6.132;2023-03-01T11:26:02;5.30;54.40
48579;DHT22;34357;51.948;6.132;2023-03-01T11:28:29;5.30;53.00
48579;DHT22;34357;51.948;6.132;2023-03-01T11:31:08;5.30;53.40
48579;DHT22;34357;51.948;6.132;2023-03-01T11:36:48;5.30;51.40
48579;DHT22;34357;51.948;6.132;2023-03-01T11:54:27;5.50;51.70
48579;DHT22;34357;51.948;6.132;2023-03-01T11:57:01;5.50;51.80
48579;DHT22;34357;51.948;6.132;2023-03-01T12:05:01;5.60;51.00
48579;DHT22;34357;51.948;6.132;2023-03-01T12:07:39;5.70;51.10
48579;DHT22;34357;51.948;6.132;2023-03-01T12:10:27;5.60;49.30
48579;DHT22;34357;51.948;6.132;2023-03-01T12:15:40;5.80;50.00
48579;DHT22;34357;51.948;6.132;2023-03-01T12:27:52;5.90;49.40
48579;DHT22;34357;51.948;6.132;2023-03-01T12:39:08;6.20;49.10
48579;DHT22;34357;51.948;6.132;2023-03-01T12:41:38;6.20;49.10
48579;DHT22;34357;51.948;6.132;2023-03-01T12:44:22;6.30;49.20
48579;DHT22;34357;51.948;6.132;2023-03-01T12:49:30;6.40;49.00
48579;DHT22;34357;51.948;6.132;2023-03-01T12:54:33;6.50;48.60
48579;DHT22;34357;51.948;6.132;2023-03-01T12:57:07;6.50;48.40
48579;DHT22;34357;51.948;6.132;2023-03-01T12:59:38;6.50;48.60
48579;DHT22;34357;51.948;6.132;2023-03-01T13:04:52;6.70;48.00
48579;DHT22;34357;51.948;6.132;2023-03-01T13:07:35;6.60;48.20
48579;DHT22;34357;51.948;6.132;2023-03-01T13:10:30;6.70;47.80
48579;DHT22;34357;51.948;6.132;2023-03-01T13:17:57;6.60;48.00
48579;DHT22;34357;51.948;6.132;2023-03-01T13:26:06;6.70;47.80
48579;DHT22;34357;51.948;6.132;2023-03-01T13:33:57;7.00;47.80
48579;DHT22;34357;51.948;6.132;2023-03-01T13:47:14;7.10;47.20
48579;DHT22;34357;51.948;6.132;2023-03-01T13:52:37;7.00;46.20
48579;DHT22;34357;51.948;6.132;2023-03-01T13:55:16;7.00;47.30
48579;DHT22;34357;51.948;6.132;2023-03-01T13:57:45;7.10;46.50
48579;DHT22;34357;51.948;6.132;2023-03-01T14:00:28;7.10;46.70
48579;DHT22;34357;51.948;6.132;2023-03-01T14:03:24;7.20;46.90
48579;DHT22;34357;51.948;6.132;2023-03-01T14:06:00;7.10;47.50
48579;DHT22;34357;51.948;6.132;2023-03-01T14:08:28;7.10;46.40
48579;DHT22;34357;51.948;6.132;2023-03-01T14:14:02;7.20;46.70
48579;DHT22;34357;51.948;6.132;2023-03-01T14:19:16;7.10;45.70
48579;DHT22;34357;51.948;6.132;2023-03-01T14:21:43;7.00;45.70
48579;DHT22;34357;51.948;6.132;2023-03-01T14:24:18;7.00;45.80
48579;DHT22;34357;51.948;6.132;2023-03-01T14:26:45;7.00;45.30
48579;DHT22;34357;51.948;6.132;2023-03-01T14:29:33;6.90;45.90
48579;DHT22;34357;51.948;6.132;2023-03-01T14:32:12;6.90;45.70
48579;DHT22;34357;51.948;6.132;2023-03-01T14:34:49;6.90;46.20
48579;DHT22;34357;51.948;6.132;2023-03-01T14:37:24;6.90;45.90
48579;DHT22;34357;51.948;6.132;2023-03-01T14:39:51;6.90;46.10
48579;DHT22;34357;51.948;6.132;2023-03-01T14:42:18;6.90;46.70
48579;DHT22;34357;51.948;6.132;2023-03-01T14:44:50;7.00;46.20
48579;DHT22;34357;51.948;6.132;2023-03-01T14:47:27;7.00;46.60
48579;DHT22;34357;51.948;6.132;2023-03-01T14:50:18;7.10;45.90
48579;DHT22;34357;51.948;6.132;2023-03-01T14:52:47;7.00;46.50
48579;DHT22;34357;51.948;6.132;2023-03-01T14:55:18;7.00;46.00
48579;DHT22;34357;51.948;6.132;2023-03-01T14:57:47;6.90;46.00
48579;DHT22;34357;51.948;6.132;2023-03-01T15:00:34;6.90;45.70
48579;DHT22;34357;51.948;6.132;2023-03-01T15:03:08;6.90;46.00
48579;DHT22;34357;51.948;6.132;2023-03-01T15:05:40;6.80;46.90
48579;DHT22;34357;51.948;6.132;2023-03-01T15:08:07;6.80;46.80
48579;DHT22;34357;51.948;6.132;2023-03-01T15:10:39;6.80;47.10
48579;DHT22;34357;51.948;6.132;2023-03-01T15:13:22;6.80;45.90
48579;DHT22;34357;51.948;6.132;2023-03-01T15:15:49;6.80;45.40
48579;DHT22;34357;51.948;6.132;2023-03-01T15:18:22;6.80;44.80
48579;DHT22;34357;51.948;6.132;2023-03-01T15:20:51;6.70;45.60
48579;DHT22;34357;51.948;6.132;2023-03-01T15:25:49;6.70;45.40
48579;DHT22;34357;51.948;6.132;2023-03-01T15:28:26;6.70;45.40
48579;DHT22;34357;51.948;6.132;2023-03-01T15:33:41;6.60;46.70
48579;DHT22;34357;51.948;6.132;2023-03-01T15:36:40;6.60;47.20
48579;DHT22;34357;51.948;6.132;2023-03-01T15:40:17;6.50;47.50
48579;DHT22;34357;51.948;6.132;2023-03-01T15:45:28;6.50;48.10
48579;DHT22;34357;51.948;6.132;2023-03-01T15:47:57;6.60;48.10
48579;DHT22;34357;51.948;6.132;2023-03-01T15:50:30;6.50;47.10
48579;DHT22;34357;51.948;6.132;2023-03-01T15:52:59;6.50;47.10
48579;DHT22;34357;51.948;6.132;2023-03-01T15:55:31;6.50;46.50
48579;DHT22;34357;51.948;6.132;2023-03-01T15:58:04;6.40;46.60
48579;DHT22;34357;51.948;6.132;2023-03-01T16:00:32;6.50;46.40
48579;DHT22;34357;51.948;6.132;2023-03-01T16:02:58;6.40;46.60
48579;DHT22;34357;51.948;6.132;2023-03-01T16:05:29;6.50;46.30
48579;DHT22;34357;51.948;6.132;2023-03-01T16:07:56;6.40;46.90
48579;DHT22;34357;51.948;6.132;2023-03-01T16:10:22;6.30;47.30
48579;DHT22;34357;51.948;6.132;2023-03-01T16:12:50;6.30;47.20
48579;DHT22;34357;51.948;6.132;2023-03-01T16:15:30;6.20;47.70
48579;DHT22;34357;51.948;6.132;2023-03-01T16:17:57;6.30;47.80
48579;DHT22;34357;51.948;6.132;2023-03-01T16:20:26;6.20;48.50
48579;DHT22;34357;51.948;6.132;2023-03-01T16:22:52;6.20;47.70
48579;DHT22;34357;51.948;6.132;2023-03-01T16:25:19;6.10;48.10
48579;DHT22;34357;51.948;6.132;2023-03-01T16:27:47;6.00;48.70
48579;DHT22;34357;51.948;6.132;2023-03-01T16:30:15;5.90;49.00
48579;DHT22;34357;51.948;6.132;2023-03-01T16:32:43;6.00;48.40
48579;DHT22;34357;51.948;6.132;2023-03-01T16:35:11;5.90;48.50
48579;DHT22;34357;51.948;6.132;2023-03-01T16:37:37;5.90;49.30
48579;DHT22;34357;51.948;6.132;2023-03-01T16:40:04;5.80;49.30
48579;DHT22;34357;51.948;6.132;2023-03-01T16:42:34;5.80;49.60
48579;DHT22;34357;51.948;6.132;2023-03-01T16:45:05;5.60;50.00
48579;DHT22;34357;51.948;6.132;2023-03-01T16:47:33;5.70;49.60
48579;DHT22;34357;51.948;6.132;2023-03-01T16:49:59;5.60;50.10
48579;DHT22;34357;51.948;6.132;2023-03-01T16:52:25;5.40;50.20
48579;DHT22;34357;51.948;6.132;2023-03-01T16:54:50;5.40;49.80
48579;DHT22;34357;51.948;6.132;2023-03-01T16:57:16;5.30;50.10
48579;DHT22;34357;51.948;6.132;2023-03-01T16:59:42;5.10;50.50
48579;DHT22;34357;51.948;6.132;2023-03-01T17:02:12;5.10;50.30
48579;DHT22;34357;51.948;6.132;2023-03-01T17:04:40;5.00;50.40
48579;DHT22;34357;51.948;6.132;2023-03-01T17:07:06;5.00;50.80
48579;DHT22;34357;51.948;6.132;2023-03-01T17:09:38;4.90;51.30
48579;DHT22;34357;51.948;6.132;2023-03-01T17:12:04;4.90;51.60
48579;DHT22;34357;51.948;6.132;2023-03-01T17:14:30;4.80;51.50
48579;DHT22;34357;51.948;6.132;2023-03-01T17:16:56;4.80;52.00
48579;DHT22;34357;51.948;6.132;2023-03-01T17:19:21;4.80;52.00
48579;DHT22;34357;51.948;6.132;2023-03-01T17:21:47;4.60;52.70
48579;DHT22;34357;51.948;6.132;2023-03-01T17:24:13;4.60;52.90
48579;DHT22;34357;51.948;6.132;2023-03-01T17:26:39;4.50;53.00
48579;DHT22;34357;51.948;6.132;2023-03-01T17:29:05;4.40;53.40
48579;DHT22;34357;51.948;6.132;2023-03-01T17:31:32;4.40;53.10
48579;DHT22;34357;51.948;6.132;2023-03-01T17:33:58;4.40;53.30
48579;DHT22;34357;51.948;6.132;2023-03-01T17:36:24;4.40;54.00
48579;DHT22;34357;51.948;6.132;2023-03-01T17:38:50;4.30;53.70
48579;DHT22;34357;51.948;6.132;2023-03-01T17:41:17;4.30;54.20
48579;DHT22;34357;51.948;6.132;2023-03-01T17:43:46;4.20;54.60
48579;DHT22;34357;51.948;6.132;2023-03-01T17:46:13;4.10;54.70
48579;DHT22;34357;51.948;6.132;2023-03-01T17:48:39;4.00;55.40
48579;DHT22;34357;51.948;6.132;2023-03-01T17:51:06;3.90;55.90
48579;DHT22;34357;51.948;6.132;2023-03-01T17:53:33;4.00;55.40
48579;DHT22;34357;51.948;6.132;2023-03-01T17:56:01;4.00;55.10
48579;DHT22;34357;51.948;6.132;2023-03-01T17:58:27;4.00;55.40
48579;DHT22;34357;51.948;6.132;2023-03-01T18:00:52;3.90;55.60
48579;DHT22;34357;51.948;6.132;2023-03-01T18:03:18;3.90;55.60
48579;DHT22;34357;51.948;6.132;2023-03-01T18:05:46;3.70;56.20
48579;DHT22;34357;51.948;6.132;2023-03-01T18:08:11;3.60;56.70